Map

Track Data

SID SEASON NUMBER BASIN SUBBASIN NAME ISO_TIME NATURE LAT LON WMO_WIND WMO_PRES WMO_AGENCY TRACK_TYPE DIST2LAND LANDFALL IFLAG USA_AGENCY USA_ATCF_ID USA_LAT USA_LON USA_RECORD USA_STATUS USA_WIND USA_PRES USA_SSHS USA_R34_NE USA_R34_SE USA_R34_SW USA_R34_NW USA_R50_NE USA_R50_SE USA_R50_SW USA_R50_NW USA_R64_NE USA_R64_SE USA_R64_SW USA_R64_NW USA_POCI USA_ROCI USA_RMW USA_EYE TOKYO_LAT TOKYO_LON TOKYO_GRADE TOKYO_WIND TOKYO_PRES TOKYO_R50_DIR TOKYO_R50_LONG TOKYO_R50_SHORT TOKYO_R30_DIR TOKYO_R30_LONG TOKYO_R30_SHORT TOKYO_LAND CMA_LAT CMA_LON CMA_CAT CMA_WIND CMA_PRES HKO_LAT HKO_LON HKO_CAT HKO_WIND HKO_PRES NEWDELHI_LAT NEWDELHI_LON NEWDELHI_GRADE NEWDELHI_WIND NEWDELHI_PRES NEWDELHI_CI NEWDELHI_DP NEWDELHI_POCI REUNION_LAT REUNION_LON REUNION_TYPE REUNION_WIND REUNION_PRES REUNION_TNUM REUNION_CI REUNION_RMW REUNION_R34_NE REUNION_R34_SE REUNION_R34_SW REUNION_R34_NW REUNION_R50_NE REUNION_R50_SE REUNION_R50_SW REUNION_R50_NW REUNION_R64_NE REUNION_R64_SE REUNION_R64_SW REUNION_R64_NW BOM_LAT BOM_LON BOM_TYPE BOM_WIND BOM_PRES BOM_TNUM BOM_CI BOM_RMW BOM_R34_NE BOM_R34_SE BOM_R34_SW BOM_R34_NW BOM_R50_NE BOM_R50_SE BOM_R50_SW BOM_R50_NW BOM_R64_NE BOM_R64_SE BOM_R64_SW BOM_R64_NW BOM_ROCI BOM_POCI BOM_EYE BOM_POS_METHOD BOM_PRES_METHOD NADI_LAT NADI_LON NADI_CAT NADI_WIND NADI_PRES WELLINGTON_LAT WELLINGTON_LON WELLINGTON_WIND WELLINGTON_PRES DS824_LAT DS824_LON DS824_STAGE DS824_WIND DS824_PRES TD9636_LAT TD9636_LON TD9636_STAGE TD9636_WIND TD9636_PRES TD9635_LAT TD9635_LON TD9635_WIND TD9635_PRES TD9635_ROCI NEUMANN_LAT NEUMANN_LON NEUMANN_CLASS NEUMANN_WIND NEUMANN_PRES MLC_LAT MLC_LON MLC_CLASS MLC_WIND MLC_PRES USA_GUST BOM_GUST BOM_GUST_PER REUNION_GUST REUNION_GUST_PER USA_SEAHGT USA_SEARAD_NE USA_SEARAD_SE USA_SEARAD_SW USA_SEARAD_NW STORM_SPEED STORM_DIR
1901212N23132 1901 22 WP MM NOT_NAMED 1901-07-30 16:00:00 NR 23.0000 132.100 main 904 904 __________O___ -1 23.0000 132.100 7 0 0
1901212N23132 1901 22 WP MM NOT_NAMED 1901-07-30 18:00:00 NR 23.0041 132.092 main 904 904 __________P___ -1 23.0041 132.092 7 1 314
1901212N23132 1901 22 WP MM NOT_NAMED 1901-07-30 21:00:00 NR 23.0275 132.053 main 904 890 __________P___ -1 23.0275 132.053 7 2 303
1901212N23132 1901 22 WP MM NOT_NAMED 1901-07-31 00:00:00 NR 23.0952 131.940 main 890 876 __________P___ -1 23.0952 131.940 7 4 303
1901212N23132 1901 22 WP MM NOT_NAMED 1901-07-31 03:00:00 NR 23.2336 131.710 main 876 864 __________P___ -1 23.2336 131.710 7 6 303
1901212N23132 1901 22 WP MM NOT_NAMED 1901-07-31 04:00:00 NR 23.3000 131.600 main 864 839 __________O___ -1 23.3000 131.600 7 8 303
1901212N23132 1901 22 WP MM NOT_NAMED 1901-07-31 06:00:00 NR 23.4652 131.324 main 839 804 __________P___ -1 23.4652 131.324 7 10 303
1901212N23132 1901 22 WP MM NOT_NAMED 1901-07-31 09:00:00 NR 23.7696 130.802 main 804 771 __________P___ -1 23.7696 130.802 7 12 302
1901212N23132 1901 22 WP MM NOT_NAMED 1901-07-31 12:00:00 NR 24.1000 130.204 main 772 743 __________P___ -1 24.1000 130.204 7 13 300
1901212N23132 1901 22 WP MM NOT_NAMED 1901-07-31 15:00:00 NR 24.4094 129.595 main 744 735 __________P___ -1 24.4094 129.595 7 13 299
1901212N23132 1901 22 WP MM NOT_NAMED 1901-07-31 16:00:00 NR 24.5000 129.400 main 736 717 __________O___ -1 24.5000 129.400 3 10 295
1901212N23132 1901 22 WP MM NOT_NAMED 1901-07-31 18:00:00 NR 24.6307 129.078 main 717 665 __________P___ -1 24.6307 129.078 3 9 292
1901212N23132 1901 22 WP MM NOT_NAMED 1901-07-31 21:00:00 NR 24.7894 128.615 main 665 624 __________P___ -1 24.7894 128.615 3 9 289
1901212N23132 1901 22 WP MM NOT_NAMED 1901-08-01 00:00:00 NR 24.9230 128.155 main 624 573 __________P___ -1 24.9230 128.155 3 9 287
1901212N23132 1901 22 WP MM NOT_NAMED 1901-08-01 03:00:00 NR 25.0535 127.671 main 573 553 __________P___ -1 25.0535 127.671 3 9 287
1901212N23132 1901 22 WP MM NOT_NAMED 1901-08-01 04:00:00 NR 25.1000 127.500 main 553 513 __________O___ -1 25.1000 127.500 4 10 288
1901212N23132 1901 22 WP MM NOT_NAMED 1901-08-01 06:00:00 NR 25.2136 127.126 main 513 454 __________P___ -1 25.2136 127.126 4 11 288
1901212N23132 1901 22 WP MM NOT_NAMED 1901-08-01 09:00:00 NR 25.3904 126.533 main 454 397 __________P___ -1 25.3904 126.533 4 11 288
1901212N23132 1901 22 WP MM NOT_NAMED 1901-08-01 12:00:00 NR 25.5691 125.919 main 397 340 __________P___ -1 25.5691 125.919 4 12 288
1901212N23132 1901 22 WP MM NOT_NAMED 1901-08-01 15:00:00 NR 25.7437 125.303 main 340 323 __________P___ -1 25.7437 125.303 4 12 287
1901212N23132 1901 22 WP MM NOT_NAMED 1901-08-01 16:00:00 NR 25.8000 125.100 main 323 288 __________O___ -1 25.8000 125.100 4 12 287
1901212N23132 1901 22 WP MM NOT_NAMED 1901-08-01 18:00:00 NR 25.9109 124.690 main 288 243 __________P___ -1 25.9109 124.690 4 11 286
1901212N23132 1901 22 WP MM NOT_NAMED 1901-08-01 21:00:00 NR 26.0713 124.081 main 243 201 __________P___ -1 26.0713 124.081 4 11 286
1901212N23132 1901 22 WP MM NOT_NAMED 1901-08-02 00:00:00 NR 26.2214 123.498 main 201 176 __________P___ -1 26.2214 123.498 4 10 286
1901212N23132 1901 22 WP MM NOT_NAMED 1901-08-02 03:00:00 NR 26.3580 122.964 main 185 175 __________P___ -1 26.3580 122.964 4 10 286
1901212N23132 1901 22 WP MM NOT_NAMED 1901-08-02 04:00:00 NR 26.4000 122.800 main 175 167 __________O___ -1 26.4000 122.800 4 8 285
1901212N23132 1901 22 WP MM NOT_NAMED 1901-08-02 06:00:00 NR 26.4665 122.511 main 170 153 __________P___ -1 26.4665 122.511 4 7 284
1901212N23132 1901 22 WP MM NOT_NAMED 1901-08-02 09:00:00 NR 26.5543 122.129 main 164 145 __________P___ -1 26.5543 122.129 4 7 285
1901212N23132 1901 22 WP MM NOT_NAMED 1901-08-02 12:00:00 NR 26.6443 121.779 main 145 99 __________P___ -1 26.6443 121.779 4 7 288
1901212N23132 1901 22 WP MM NOT_NAMED 1901-08-02 15:00:00 NR 26.7552 121.425 main 99 90 __________P___ -1 26.7552 121.425 4 7 290
1901212N23132 1901 22 WP MM NOT_NAMED 1901-08-02 16:00:00 NR 26.8000 121.300 main 90 59 __________O___ -1 26.8000 121.300 4 8 293
1901212N23132 1901 22 WP MM NOT_NAMED 1901-08-02 18:00:00 NR 26.9037 121.035 main 59 14 __________P___ -1 26.9037 121.035 4 8 295
1901212N23132 1901 22 WP MM NOT_NAMED 1901-08-02 21:00:00 NR 27.0891 120.604 main 14 0 __________P___ -1 27.0891 120.604 4 9 296
1901212N23132 1901 22 WP MM NOT_NAMED 1901-08-03 00:00:00 NR 27.2998 120.142 main 0 0 __________P___ -1 27.2998 120.142 4 9 297
1901212N23132 1901 22 WP MM NOT_NAMED 1901-08-03 03:00:00 NR 27.5242 119.662 main 0 0 __________P___ -1 27.5242 119.662 4 10 298
1901212N23132 1901 22 WP MM NOT_NAMED 1901-08-03 04:00:00 NR 27.6000 119.500 main 0 __________O___ -1 27.6000 119.500 4 10 298

Digital Typhoon Data and Search

About IBTrACS Database

This database is a web-friendly format of International Best Track Archive for Climate Stewardship (IBTrACS), a global best track data archive curated by NOAA dating back to 1842.

Updated: 2021-11-26